createdAt,value
2018-10-19T00:00:34.070Z,11.40
2018-10-19T00:03:02.285Z,11.40
2018-10-19T00:05:30.618Z,11.40
2018-10-19T00:07:58.847Z,11.30
2018-10-19T00:10:27.136Z,11.30
2018-10-19T00:12:55.379Z,11.30
2018-10-19T00:15:23.608Z,11.40
2018-10-19T00:17:51.874Z,11.30
2018-10-19T00:20:20.087Z,11.30
2018-10-19T00:22:48.327Z,11.40
2018-10-19T00:25:16.554Z,11.40
2018-10-19T00:27:44.788Z,11.30
2018-10-19T00:30:12.991Z,11.40
2018-10-19T00:32:41.343Z,11.40
2018-10-19T00:35:10.161Z,11.40
2018-10-19T00:37:38.771Z,11.40
2018-10-19T00:40:07.151Z,11.50
2018-10-19T00:42:35.722Z,11.50
2018-10-19T00:45:04.167Z,11.50
2018-10-19T00:47:32.391Z,11.50
2018-10-19T00:50:00.674Z,11.50
2018-10-19T00:52:28.910Z,11.50
2018-10-19T00:54:57.174Z,11.50
2018-10-19T00:57:25.397Z,11.50
2018-10-19T00:59:53.926Z,11.50
2018-10-19T01:02:22.286Z,11.40
2018-10-19T01:04:50.550Z,11.50
2018-10-19T01:07:18.773Z,11.40
2018-10-19T01:09:46.983Z,11.30
2018-10-19T01:12:15.226Z,11.30
2018-10-19T01:14:43.450Z,11.20
2018-10-19T01:17:11.764Z,11.20
2018-10-19T01:19:39.939Z,11.20
2018-10-19T01:22:08.164Z,11.10
2018-10-19T01:24:36.479Z,11.00
2018-10-19T01:27:05.004Z,11.00
2018-10-19T01:29:33.254Z,11.00
2018-10-19T01:32:01.492Z,11.00
2018-10-19T01:34:29.726Z,10.90
2018-10-19T01:36:57.950Z,10.90
2018-10-19T01:39:26.191Z,10.90
2018-10-19T01:41:54.400Z,11.00
2018-10-19T01:44:22.642Z,11.00
2018-10-19T01:46:50.882Z,10.90
2018-10-19T01:49:20.111Z,10.90
2018-10-19T01:51:48.356Z,10.90
2018-10-19T01:54:16.601Z,11.00
2018-10-19T01:56:44.860Z,11.00
2018-10-19T01:59:13.130Z,11.00
2018-10-19T02:01:41.353Z,11.00
2018-10-19T02:04:09.590Z,11.10
2018-10-19T02:06:37.813Z,11.10
2018-10-19T02:09:07.230Z,11.20
2018-10-19T02:11:35.718Z,11.20
2018-10-19T02:14:03.931Z,11.20
2018-10-19T02:16:32.231Z,11.20
2018-10-19T02:19:00.423Z,11.30
2018-10-19T02:21:28.643Z,11.30
2018-10-19T02:23:56.871Z,11.40
2018-10-19T02:26:25.071Z,11.40
2018-10-19T02:28:53.383Z,11.40
2018-10-19T02:31:21.582Z,11.40
2018-10-19T02:33:49.806Z,11.40
2018-10-19T02:36:18.038Z,11.30
2018-10-19T02:38:46.476Z,11.30
2018-10-19T02:41:14.871Z,11.30
2018-10-19T02:43:43.003Z,11.30
2018-10-19T02:46:11.235Z,11.20
2018-10-19T02:48:39.447Z,11.20
2018-10-19T02:51:07.965Z,11.20
2018-10-19T02:53:36.390Z,11.20
2018-10-19T02:56:04.768Z,11.20
2018-10-19T02:58:32.974Z,11.20
2018-10-19T03:01:01.230Z,11.30
2018-10-19T03:03:29.438Z,11.30
2018-10-19T03:05:57.638Z,11.30
2018-10-19T03:08:25.875Z,11.40
2018-10-19T03:10:54.079Z,11.40
2018-10-19T03:13:22.347Z,11.50
2018-10-19T03:15:50.592Z,11.50
2018-10-19T03:18:18.805Z,11.50
2018-10-19T03:20:47.050Z,11.50
2018-10-19T03:23:15.393Z,11.50
2018-10-19T03:25:43.626Z,11.50
2018-10-19T03:28:11.875Z,11.40
2018-10-19T03:30:40.173Z,11.40
2018-10-19T03:33:08.413Z,11.40
2018-10-19T03:35:36.730Z,11.50
2018-10-19T03:38:05.572Z,11.50
2018-10-19T03:40:33.807Z,11.50
2018-10-19T03:43:02.215Z,11.50
2018-10-19T03:45:30.434Z,11.50
2018-10-19T03:47:58.658Z,11.50
2018-10-19T03:50:27.014Z,11.40
2018-10-19T03:52:55.627Z,11.30
2018-10-19T03:55:23.845Z,11.20
2018-10-19T03:57:52.067Z,11.10
2018-10-19T04:00:20.278Z,11.00
2018-10-19T04:02:48.562Z,10.90
2018-10-19T04:05:16.940Z,10.90
2018-10-19T04:07:45.334Z,10.80
2018-10-19T04:10:13.607Z,10.80
2018-10-19T04:12:41.820Z,10.70
2018-10-19T04:15:10.254Z,10.70
2018-10-19T04:17:38.622Z,10.60
2018-10-19T04:20:06.851Z,10.60
2018-10-19T04:22:35.095Z,10.50
2018-10-19T04:25:03.628Z,10.50
2018-10-19T04:27:31.900Z,10.50
2018-10-19T04:30:00.107Z,10.40
2018-10-19T04:32:28.326Z,10.30
2018-10-19T04:34:56.597Z,10.30
2018-10-19T04:37:24.831Z,10.20
2018-10-19T04:39:53.070Z,10.10
2018-10-19T04:42:21.432Z,10.00
2018-10-19T04:44:49.555Z,10.00
2018-10-19T04:47:17.803Z,9.90
2018-10-19T04:49:46.040Z,9.80
2018-10-19T04:52:14.295Z,9.80
2018-10-19T04:54:42.520Z,9.80
2018-10-19T04:57:10.846Z,9.70
2018-10-19T04:59:39.033Z,9.70
2018-10-19T05:02:07.254Z,9.60
2018-10-19T05:04:35.521Z,9.60
2018-10-19T05:07:03.702Z,9.50
2018-10-19T05:09:31.897Z,9.50
2018-10-19T05:12:00.130Z,9.50
2018-10-19T05:14:28.319Z,9.50
2018-10-19T05:16:56.593Z,9.50
2018-10-19T05:19:24.799Z,9.60
2018-10-19T05:21:53.007Z,9.60
2018-10-19T05:24:21.257Z,9.60
2018-10-19T05:26:49.542Z,9.70
2018-10-19T05:29:17.858Z,9.70
2018-10-19T05:31:46.187Z,9.70
2018-10-19T05:34:14.438Z,9.70
2018-10-19T05:36:42.675Z,9.70
2018-10-19T05:39:10.923Z,9.70
2018-10-19T05:41:39.119Z,9.70
2018-10-19T05:44:07.495Z,9.70
2018-10-19T05:46:35.615Z,9.70
2018-10-19T05:49:03.863Z,9.70
2018-10-19T05:51:32.070Z,9.70
2018-10-19T05:54:00.286Z,9.70
2018-10-19T05:56:28.466Z,9.60
2018-10-19T05:58:56.701Z,9.50
2018-10-19T06:01:24.933Z,9.50
2018-10-19T06:03:53.151Z,9.50
2018-10-19T06:06:21.379Z,9.50
2018-10-19T06:08:49.631Z,9.50
2018-10-19T06:11:17.877Z,9.50
2018-10-19T06:13:46.204Z,9.40
2018-10-19T06:16:14.387Z,9.40
2018-10-19T06:18:42.635Z,9.40
2018-10-19T06:21:10.916Z,9.40
2018-10-19T06:23:39.052Z,9.30
2018-10-19T06:26:07.334Z,9.40
2018-10-19T06:28:35.541Z,9.40
2018-10-19T06:31:03.803Z,9.40
2018-10-19T06:33:32.062Z,9.50
2018-10-19T06:36:00.262Z,9.50
2018-10-19T06:38:28.491Z,9.60
2018-10-19T06:40:56.767Z,9.60
2018-10-19T06:43:24.938Z,9.70
2018-10-19T06:45:53.131Z,9.80
2018-10-19T06:48:21.331Z,9.80
2018-10-19T06:50:49.534Z,9.90
2018-10-19T06:53:17.744Z,10.00
2018-10-19T06:55:45.998Z,10.00
2018-10-19T06:58:14.291Z,10.10
2018-10-19T07:00:42.571Z,10.10
2018-10-19T07:03:10.800Z,10.10
2018-10-19T07:05:39.136Z,10.10
2018-10-19T07:08:07.484Z,10.10
2018-10-19T07:10:35.609Z,10.10
2018-10-19T07:13:03.831Z,10.20
2018-10-19T07:15:32.043Z,10.20
2018-10-19T07:18:00.254Z,10.20
2018-10-19T07:20:28.481Z,10.20
2018-10-19T07:22:56.719Z,10.30
2018-10-19T07:25:24.979Z,10.30
2018-10-19T07:27:53.171Z,10.40
2018-10-19T07:30:21.418Z,10.40
2018-10-19T07:32:49.659Z,10.50
2018-10-19T07:35:17.966Z,10.50
2018-10-19T07:37:46.218Z,10.50
2018-10-19T07:40:14.443Z,10.60
2018-10-19T07:42:42.722Z,10.70
2018-10-19T07:45:10.955Z,10.80
2018-10-19T07:47:39.570Z,10.80
2018-10-19T07:50:08.286Z,11.00
2018-10-19T07:52:36.906Z,11.00
2018-10-19T07:55:06.186Z,11.00
2018-10-19T07:57:34.394Z,11.10
2018-10-19T08:00:02.634Z,11.10
2018-10-19T08:02:30.891Z,11.30
2018-10-19T08:04:59.125Z,11.30
2018-10-19T08:07:27.316Z,11.50
2018-10-19T08:09:55.542Z,11.40
2018-10-19T08:12:23.787Z,11.50
2018-10-19T08:14:52.035Z,11.60
2018-10-19T08:17:20.246Z,11.60
2018-10-19T08:19:48.495Z,11.70
2018-10-19T08:22:16.730Z,11.70
2018-10-19T08:24:44.984Z,11.70
2018-10-19T08:27:13.293Z,11.80
2018-10-19T08:29:41.516Z,11.80
2018-10-19T08:32:10.143Z,11.90
2018-10-19T08:34:38.706Z,12.00
2018-10-19T08:37:06.981Z,12.00
2018-10-19T08:39:35.201Z,12.00
2018-10-19T08:42:03.442Z,12.20
2018-10-19T08:44:31.679Z,12.30
2018-10-19T08:46:59.929Z,12.20
2018-10-19T08:49:28.123Z,12.30
2018-10-19T08:51:56.363Z,12.30
2018-10-19T08:54:24.635Z,12.40
2018-10-19T08:56:52.848Z,12.50
2018-10-19T08:59:21.080Z,12.40
2018-10-19T09:01:49.315Z,12.60
2018-10-19T09:04:17.559Z,12.70
2018-10-19T09:06:45.999Z,12.90
2018-10-19T09:09:14.406Z,13.10
2018-10-19T09:11:42.613Z,13.20
2018-10-19T09:14:22.330Z,13.30
2018-10-19T09:16:50.642Z,13.30
2018-10-19T09:19:18.974Z,13.50
2018-10-19T09:21:47.238Z,13.40
2018-10-19T09:24:15.524Z,13.60
2018-10-19T09:26:44.436Z,13.80
2018-10-19T09:29:13.565Z,14.00
2018-10-19T09:31:41.812Z,14.10
2018-10-19T09:34:10.013Z,14.20
2018-10-19T09:36:38.434Z,14.30
2018-10-19T09:39:09.193Z,14.50
2018-10-19T09:41:37.415Z,14.60
2018-10-19T09:44:05.655Z,14.50
2018-10-19T09:46:34.202Z,14.60
2018-10-19T09:49:02.500Z,14.70
2018-10-19T09:51:30.666Z,14.90
2018-10-19T09:53:58.910Z,15.00
2018-10-19T09:56:28.161Z,15.00
2018-10-19T09:58:56.483Z,15.00
2018-10-19T10:01:27.599Z,15.20
2018-10-19T10:03:55.802Z,15.50
2018-10-19T10:06:24.063Z,15.50
2018-10-19T10:08:52.285Z,15.60
2018-10-19T10:11:20.771Z,15.80
2018-10-19T10:13:49.121Z,15.90
2018-10-19T10:16:17.347Z,16.00
2018-10-19T10:18:45.612Z,16.10
2018-10-19T10:21:13.846Z,16.20
2018-10-19T10:23:42.512Z,16.30
2018-10-19T10:26:10.735Z,16.40
2018-10-19T10:28:39.155Z,16.30
2018-10-19T10:31:07.369Z,16.30
2018-10-19T10:33:35.833Z,16.30
2018-10-19T10:36:04.299Z,16.30
2018-10-19T10:38:32.766Z,16.30
2018-10-19T10:41:01.227Z,16.30
2018-10-19T10:43:29.471Z,16.50
2018-10-19T10:45:57.681Z,16.60
2018-10-19T10:48:25.927Z,16.60
2018-10-19T10:50:54.439Z,16.70
2018-10-19T10:53:22.643Z,16.80
2018-10-19T10:55:50.862Z,17.10
2018-10-19T10:58:19.083Z,17.20
2018-10-19T11:00:47.302Z,17.40
2018-10-19T11:03:15.567Z,17.70
2018-10-19T11:05:44.742Z,18.40
2018-10-19T11:08:12.956Z,18.80
2018-10-19T11:10:41.174Z,19.80
2018-10-19T11:13:09.476Z,20.70
2018-10-19T11:15:37.775Z,21.80
2018-10-19T11:18:06.259Z,22.70
2018-10-19T11:20:34.495Z,23.30
2018-10-19T11:23:02.842Z,23.70
2018-10-19T11:25:31.375Z,24.10
2018-10-19T11:27:59.688Z,24.70
2018-10-19T11:30:27.986Z,24.80
2018-10-19T11:32:56.270Z,25.20
2018-10-19T11:35:24.646Z,25.60
2018-10-19T11:37:53.442Z,25.70
2018-10-19T11:40:36.449Z,25.70
2018-10-19T11:43:05.289Z,26.10
2018-10-19T11:45:34.568Z,26.70
2018-10-19T11:48:02.937Z,26.80
2018-10-19T11:50:31.221Z,27.00
2018-10-19T11:52:59.593Z,26.90
2018-10-19T11:55:28.043Z,26.80
2018-10-19T11:57:56.627Z,26.90
2018-10-19T12:00:24.839Z,27.30
2018-10-19T12:02:53.151Z,27.20
2018-10-19T12:05:21.490Z,26.50
2018-10-19T12:07:49.862Z,26.50
2018-10-19T12:10:18.131Z,27.00
2018-10-19T12:12:46.470Z,27.30
2018-10-19T12:15:16.064Z,27.20
2018-10-19T12:17:44.986Z,27.10
2018-10-19T12:20:17.567Z,27.30
2018-10-19T12:22:45.838Z,27.80
2018-10-19T12:25:15.090Z,28.20
2018-10-19T12:27:43.585Z,28.60
2018-10-19T12:30:12.479Z,29.30
2018-10-19T12:32:41.070Z,30.00
2018-10-19T12:35:11.251Z,30.50
2018-10-19T12:37:39.697Z,30.80
2018-10-19T12:40:08.883Z,31.00
2018-10-19T12:42:37.651Z,31.30
2018-10-19T12:45:07.148Z,31.20
2018-10-19T12:47:41.374Z,31.50
2018-10-19T12:50:09.762Z,31.60
2018-10-19T12:52:38.294Z,31.60
2018-10-19T12:55:07.925Z,31.90
2018-10-19T12:57:36.348Z,32.10
2018-10-19T13:00:05.983Z,32.60
2018-10-19T13:02:34.490Z,32.80
2018-10-19T13:05:04.451Z,32.90
2018-10-19T13:07:32.758Z,33.10
2018-10-19T13:10:01.006Z,33.20
2018-10-19T13:12:29.562Z,33.40
2018-10-19T13:14:58.124Z,33.70
2018-10-19T13:17:26.510Z,34.00
2018-10-19T13:19:54.830Z,33.40
2018-10-19T13:22:23.129Z,32.80
2018-10-19T13:24:51.583Z,32.50
2018-10-19T13:27:20.124Z,32.50
2018-10-19T13:29:48.440Z,32.50
2018-10-19T13:32:16.930Z,32.10
2018-10-19T13:34:45.253Z,31.70
2018-10-19T13:37:13.488Z,31.70
2018-10-19T13:39:41.830Z,31.80
2018-10-19T13:42:10.255Z,31.70
2018-10-19T13:44:38.709Z,31.40
2018-10-19T13:47:07.196Z,30.60
2018-10-19T13:49:35.674Z,30.10
2018-10-19T13:52:03.922Z,30.00
2018-10-19T13:54:32.202Z,29.90
2018-10-19T13:57:00.837Z,30.10
2018-10-19T13:59:29.090Z,30.20
2018-10-19T14:01:57.386Z,30.00
2018-10-19T14:04:25.779Z,30.40
2018-10-19T14:06:54.014Z,30.40
2018-10-19T14:09:22.262Z,30.50
2018-10-19T14:11:50.482Z,30.30
2018-10-19T14:14:18.946Z,30.10
2018-10-19T14:16:47.491Z,30.70
2018-10-19T14:19:15.765Z,31.30
2018-10-19T14:21:44.322Z,31.60
2018-10-19T14:24:12.548Z,31.70
2018-10-19T14:26:40.986Z,32.20
2018-10-19T14:29:09.407Z,32.60
2018-10-19T14:31:37.630Z,33.10
2018-10-19T14:34:06.054Z,33.30
2018-10-19T14:36:34.732Z,33.20
2018-10-19T14:39:03.399Z,33.00
2018-10-19T14:41:31.749Z,32.40
2018-10-19T14:44:00.095Z,32.10
2018-10-19T14:46:28.567Z,31.40
2018-10-19T14:48:57.222Z,30.70
2018-10-19T14:51:25.450Z,29.90
2018-10-19T14:53:53.766Z,29.20
2018-10-19T14:56:22.218Z,28.40
2018-10-19T14:58:50.614Z,27.50
2018-10-19T15:01:19.269Z,26.80
2018-10-19T15:03:47.793Z,26.00
2018-10-19T15:06:16.351Z,25.40
2018-10-19T15:08:44.806Z,24.90
2018-10-19T15:11:13.518Z,24.20
2018-10-19T15:13:41.582Z,23.90
2018-10-19T15:16:09.911Z,23.70
2018-10-19T15:18:38.321Z,23.60
2018-10-19T15:21:06.772Z,23.80
2018-10-19T15:23:35.332Z,24.30
2018-10-19T15:26:03.675Z,24.90
2018-10-19T15:28:31.899Z,25.50
2018-10-19T15:31:00.350Z,26.00
2018-10-19T15:33:28.718Z,26.30
2018-10-19T15:35:57.051Z,26.50
2018-10-19T15:38:25.453Z,26.70
2018-10-19T15:40:53.790Z,26.90
2018-10-19T15:43:22.075Z,27.00
2018-10-19T15:45:50.452Z,27.00
2018-10-19T15:48:18.700Z,26.80
2018-10-19T15:50:47.078Z,26.50
2018-10-19T15:53:15.382Z,25.90
2018-10-19T15:55:43.784Z,25.40
2018-10-19T15:58:12.130Z,24.80
2018-10-19T16:00:40.633Z,24.30
2018-10-19T16:03:09.106Z,23.70
2018-10-19T16:05:37.450Z,23.10
2018-10-19T16:08:05.831Z,22.60
2018-10-19T16:10:34.101Z,22.10
2018-10-19T16:13:02.539Z,21.70
2018-10-19T16:15:30.835Z,21.30
2018-10-19T16:17:59.347Z,21.10
2018-10-19T16:20:27.682Z,20.70
2018-10-19T16:22:56.011Z,20.40
2018-10-19T16:25:24.301Z,20.20
2018-10-19T16:27:52.838Z,19.90
2018-10-19T16:30:21.416Z,19.60
2018-10-19T16:32:49.750Z,19.40
2018-10-19T16:35:18.251Z,19.20
2018-10-19T16:37:46.646Z,18.90
2018-10-19T16:40:15.956Z,18.70
2018-10-19T16:42:45.011Z,18.60
2018-10-19T16:45:13.494Z,18.40
2018-10-19T16:47:41.931Z,18.20
2018-10-19T16:50:10.599Z,18.10
2018-10-19T16:52:39.040Z,18.00
2018-10-19T16:55:07.267Z,17.90
2018-10-19T16:57:35.602Z,17.80
2018-10-19T17:00:04.064Z,17.70
2018-10-19T17:02:32.598Z,17.60
2018-10-19T17:05:00.997Z,17.50
2018-10-19T17:07:29.439Z,17.30
2018-10-19T17:09:57.663Z,17.30
2018-10-19T17:12:26.039Z,17.20
2018-10-19T17:14:54.451Z,17.10
2018-10-19T17:17:22.695Z,17.00
2018-10-19T17:19:51.182Z,16.90
2018-10-19T17:22:19.755Z,16.90
2018-10-19T17:24:48.201Z,16.80
2018-10-19T17:27:16.821Z,16.80
2018-10-19T17:29:45.468Z,16.70
2018-10-19T17:32:13.867Z,16.60
2018-10-19T17:34:42.171Z,16.60
2018-10-19T17:37:10.745Z,16.50
2018-10-19T17:39:39.231Z,16.40
2018-10-19T17:42:07.598Z,16.40
2018-10-19T17:44:35.842Z,16.30
2018-10-19T17:47:04.472Z,16.20
2018-10-19T17:49:32.670Z,16.20
2018-10-19T17:52:00.900Z,16.10
2018-10-19T17:54:29.479Z,16.10
2018-10-19T17:56:57.750Z,16.00
2018-10-19T17:59:25.962Z,15.90
2018-10-19T18:01:54.331Z,15.90
2018-10-19T18:04:22.816Z,15.80
2018-10-19T18:06:51.054Z,15.70
2018-10-19T18:09:19.478Z,15.70
2018-10-19T18:11:47.863Z,15.60
2018-10-19T18:14:17.110Z,15.50
2018-10-19T18:16:45.495Z,15.40
2018-10-19T18:19:13.823Z,15.30
2018-10-19T18:21:42.254Z,15.30
2018-10-19T18:24:10.604Z,15.20
2018-10-19T18:26:39.164Z,15.10
2018-10-19T18:29:07.632Z,15.00
2018-10-19T18:31:36.112Z,14.90
2018-10-19T18:34:04.471Z,14.90
2018-10-19T18:36:32.984Z,14.90
2018-10-19T18:39:01.210Z,14.80
2018-10-19T18:41:29.777Z,14.70
2018-10-19T18:43:58.308Z,14.70
2018-10-19T18:46:26.674Z,14.60
2018-10-19T18:48:55.124Z,14.50
2018-10-19T18:51:23.535Z,14.50
2018-10-19T18:53:51.979Z,14.50
2018-10-19T18:56:20.322Z,14.50
2018-10-19T18:58:48.742Z,14.40
2018-10-19T19:01:17.167Z,14.40
2018-10-19T19:03:45.620Z,14.30
2018-10-19T19:06:13.999Z,14.30
2018-10-19T19:08:42.439Z,14.30
2018-10-19T19:11:10.962Z,14.20
2018-10-19T19:13:45.451Z,14.20
2018-10-19T19:16:19.253Z,14.20
2018-10-19T19:18:47.991Z,14.20
2018-10-19T19:21:16.917Z,14.10
2018-10-19T19:23:50.526Z,14.10
2018-10-19T19:26:20.549Z,14.00
2018-10-19T19:28:49.083Z,14.00
2018-10-19T19:31:17.602Z,14.00
2018-10-19T19:33:51.341Z,13.90
2018-10-19T19:36:19.639Z,13.80
2018-10-19T19:38:48.131Z,13.80
2018-10-19T19:41:22.643Z,13.80
2018-10-19T19:43:51.128Z,13.70
2018-10-19T19:46:19.672Z,13.70
2018-10-19T19:48:53.733Z,13.60
2018-10-19T19:51:22.230Z,13.50
2018-10-19T19:53:50.698Z,13.50
2018-10-19T19:56:19.243Z,13.50
2018-10-19T19:58:49.770Z,13.40
2018-10-19T20:01:19.299Z,13.30
2018-10-19T20:03:49.441Z,13.30
2018-10-19T20:06:19.255Z,13.20
2018-10-19T20:08:48.666Z,13.20
2018-10-19T20:11:16.890Z,13.10
2018-10-19T20:13:45.088Z,13.10
2018-10-19T20:16:13.374Z,13.10
2018-10-19T20:18:41.605Z,13.00
2018-10-19T20:21:09.833Z,12.90
2018-10-19T20:23:38.070Z,12.90
2018-10-19T20:26:06.315Z,12.80
2018-10-19T20:28:34.531Z,12.80
2018-10-19T20:31:02.739Z,12.70
2018-10-19T20:33:31.000Z,12.70
2018-10-19T20:35:59.178Z,12.60
2018-10-19T20:38:27.411Z,12.50
2018-10-19T20:40:55.779Z,12.50
2018-10-19T20:43:23.971Z,12.40
2018-10-19T20:45:52.167Z,12.40
2018-10-19T20:48:20.367Z,12.30
2018-10-19T20:50:48.574Z,12.30
2018-10-19T20:53:17.778Z,12.20
2018-10-19T20:55:46.043Z,12.20
2018-10-19T20:58:14.550Z,12.20
2018-10-19T21:00:42.990Z,12.10
2018-10-19T21:03:11.190Z,12.00
2018-10-19T21:05:39.519Z,11.90
2018-10-19T21:08:07.795Z,11.90
2018-10-19T21:10:35.986Z,11.80
2018-10-19T21:13:04.343Z,11.80
2018-10-19T21:15:32.675Z,11.70
2018-10-19T21:18:00.932Z,11.70
2018-10-19T21:20:29.159Z,11.60
2018-10-19T21:22:57.451Z,11.60
2018-10-19T21:25:25.821Z,11.50
2018-10-19T21:27:54.128Z,11.50
2018-10-19T21:30:22.351Z,11.40
2018-10-19T21:32:50.612Z,11.40
2018-10-19T21:35:18.829Z,11.30
2018-10-19T21:37:47.029Z,11.30
2018-10-19T21:40:15.267Z,11.20
2018-10-19T21:42:43.492Z,11.20
2018-10-19T21:45:11.679Z,11.20
2018-10-19T21:47:39.962Z,11.20
2018-10-19T21:50:08.805Z,11.10
2018-10-19T21:52:37.086Z,11.10
2018-10-19T21:55:06.215Z,11.00
2018-10-19T21:57:34.498Z,10.90
2018-10-19T22:00:02.708Z,10.90
2018-10-19T22:02:30.963Z,10.90
2018-10-19T22:04:59.202Z,10.80
2018-10-19T22:07:27.468Z,10.70
2018-10-19T22:09:55.707Z,10.70
2018-10-19T22:12:23.923Z,10.70
2018-10-19T22:14:52.195Z,10.70
2018-10-19T22:17:20.454Z,10.60
2018-10-19T22:19:48.765Z,10.60
2018-10-19T22:22:16.990Z,10.60
2018-10-19T22:24:45.248Z,10.50
2018-10-19T22:27:13.445Z,10.50
2018-10-19T22:29:41.651Z,10.50
2018-10-19T22:32:09.879Z,10.50
2018-10-19T22:34:38.178Z,10.50
2018-10-19T22:37:06.464Z,10.50
2018-10-19T22:39:34.678Z,10.40
2018-10-19T22:42:03.023Z,10.40
2018-10-19T22:44:31.234Z,10.30
2018-10-19T22:46:59.687Z,10.30
2018-10-19T22:49:27.942Z,10.30
2018-10-19T22:51:56.162Z,10.20
2018-10-19T22:54:24.382Z,10.20
2018-10-19T22:56:52.628Z,10.10
2018-10-19T22:59:20.987Z,10.10
2018-10-19T23:01:49.215Z,10.10
2018-10-19T23:04:17.579Z,10.00
2018-10-19T23:06:46.072Z,10.00
2018-10-19T23:09:14.311Z,9.90
2018-10-19T23:11:42.556Z,10.00
2018-10-19T23:14:10.780Z,9.90
2018-10-19T23:16:39.102Z,9.90
2018-10-19T23:19:07.425Z,9.90
2018-10-19T23:21:35.678Z,9.90
2018-10-19T23:24:04.101Z,9.90
2018-10-19T23:26:32.347Z,9.80
2018-10-19T23:29:00.599Z,9.80
2018-10-19T23:31:28.928Z,9.70
2018-10-19T23:33:57.037Z,9.70
2018-10-19T23:36:25.294Z,9.60
2018-10-19T23:38:53.551Z,9.60
2018-10-19T23:41:21.787Z,9.60
2018-10-19T23:43:50.094Z,9.50
2018-10-19T23:46:18.267Z,9.50
2018-10-19T23:48:46.476Z,9.50
2018-10-19T23:51:14.718Z,9.40
2018-10-19T23:53:42.931Z,9.40
2018-10-19T23:56:11.196Z,9.40
2018-10-19T23:58:39.448Z,9.30
